createdAt,value
2023-03-02T00:01:06.219Z,95466.88
2023-03-02T00:04:15.013Z,95481.28
2023-03-02T00:07:19.357Z,95482.81
2023-03-02T00:10:25.094Z,95488.31
2023-03-02T00:13:27.236Z,95477.41
2023-03-02T00:16:31.889Z,95490.31
2023-03-02T00:19:36.912Z,95489.41
2023-03-02T00:22:40.383Z,95483.00
2023-03-02T00:25:43.569Z,95482.81
2023-03-02T00:28:46.313Z,95492.97
2023-03-02T00:31:48.866Z,95501.56
2023-03-02T00:34:53.428Z,95497.28
2023-03-02T00:37:55.434Z,95514.78
2023-03-02T00:41:02.347Z,95503.63
2023-03-02T00:44:05.448Z,95501.97
2023-03-02T00:47:07.442Z,95502.44
2023-03-02T00:50:10.615Z,95499.13
2023-03-02T00:53:13.734Z,95494.44
2023-03-02T00:56:19.691Z,95493.66
2023-03-02T00:59:21.576Z,95490.59
2023-03-02T01:02:23.485Z,95494.31
2023-03-02T01:05:26.259Z,95484.06
2023-03-02T01:08:28.505Z,95483.47
2023-03-02T01:11:31.654Z,95474.97
2023-03-02T01:14:33.720Z,95457.56
2023-03-02T01:17:35.917Z,95473.91
2023-03-02T01:20:38.094Z,95469.44
2023-03-02T01:23:42.595Z,95456.38
2023-03-02T01:26:46.041Z,95448.00
2023-03-02T01:29:47.943Z,95450.53
2023-03-02T01:32:52.247Z,95441.06
2023-03-02T01:35:54.072Z,95441.44
2023-03-02T01:38:59.459Z,95441.63
2023-03-02T01:42:02.626Z,95439.41
2023-03-02T01:45:06.613Z,95437.69
2023-03-02T01:48:10.268Z,95438.66
2023-03-02T01:51:15.628Z,95431.13
2023-03-02T01:54:23.098Z,95433.97
2023-03-02T01:57:32.943Z,95438.16
2023-03-02T02:00:37.867Z,95438.28
2023-03-02T02:03:39.856Z,95427.94
2023-03-02T02:06:49.312Z,95437.72
2023-03-02T02:09:52.089Z,95430.41
2023-03-02T02:12:55.582Z,95422.69
2023-03-02T02:16:00.630Z,95404.69
2023-03-02T02:19:04.111Z,95416.50
2023-03-02T02:22:06.213Z,95407.69
2023-03-02T02:25:22.478Z,95415.19
2023-03-02T02:28:31.820Z,95412.53
2023-03-02T02:31:39.228Z,95426.94
2023-03-02T02:34:48.469Z,95411.06
2023-03-02T02:37:53.567Z,95415.53
2023-03-02T02:40:58.168Z,95413.63
2023-03-02T02:44:01.780Z,95405.53
2023-03-02T02:47:13.968Z,95405.19
2023-03-02T02:50:19.007Z,95404.91
2023-03-02T02:53:26.235Z,95401.25
2023-03-02T02:56:31.611Z,95399.50
2023-03-02T02:59:37.967Z,95395.28
2023-03-02T03:02:47.010Z,95403.94
2023-03-02T03:05:49.022Z,95398.59
2023-03-02T03:08:57.664Z,95399.19
2023-03-02T03:12:04.190Z,95409.97
2023-03-02T03:15:08.728Z,95413.78
2023-03-02T03:18:10.633Z,95405.75
2023-03-02T03:21:13.510Z,95418.47
2023-03-02T03:24:16.128Z,95422.03
2023-03-02T03:27:18.109Z,95418.25
2023-03-02T03:30:21.950Z,95410.59
2023-03-02T03:33:24.306Z,95402.81
2023-03-02T03:36:27.614Z,95403.13
2023-03-02T03:39:29.729Z,95396.38
2023-03-02T03:42:31.922Z,95384.50
2023-03-02T03:45:35.094Z,95396.91
2023-03-02T03:48:36.979Z,95396.63
2023-03-02T03:51:39.255Z,95392.84
2023-03-02T03:54:45.094Z,95401.66
2023-03-02T03:57:47.278Z,95399.13
2023-03-02T04:00:53.808Z,95405.06
2023-03-02T04:03:58.423Z,95397.72
2023-03-02T04:07:00.836Z,95396.00
2023-03-02T04:10:04.116Z,95397.31
2023-03-02T04:13:06.212Z,95387.13
2023-03-02T04:16:09.375Z,95388.72
2023-03-02T04:19:14.066Z,95394.66
2023-03-02T04:22:17.231Z,95401.53
2023-03-02T04:25:21.640Z,95396.47
2023-03-02T04:28:23.479Z,95385.25
2023-03-02T04:31:30.118Z,95391.97
2023-03-02T04:34:32.465Z,95391.50
2023-03-02T04:37:36.777Z,95388.69
2023-03-02T04:40:38.670Z,95385.56
2023-03-02T04:43:43.109Z,95385.09
2023-03-02T04:46:47.532Z,95395.28
2023-03-02T04:49:49.332Z,95386.50
2023-03-02T04:52:51.950Z,95379.28
2023-03-02T04:55:53.722Z,95385.91
2023-03-02T04:58:56.259Z,95387.13
2023-03-02T05:02:01.281Z,95382.44
2023-03-02T05:05:03.315Z,95386.06
2023-03-02T05:08:08.616Z,95383.25
2023-03-02T05:11:16.717Z,95375.44
2023-03-02T05:14:19.145Z,95371.16
2023-03-02T05:17:22.400Z,95375.41
2023-03-02T05:20:25.344Z,95369.41
2023-03-02T05:23:27.975Z,95362.69
2023-03-02T05:26:30.383Z,95371.56
2023-03-02T05:29:33.076Z,95364.25
2023-03-02T05:32:36.890Z,95361.53
2023-03-02T05:35:39.127Z,95361.84
2023-03-02T05:38:41.414Z,95367.56
2023-03-02T05:41:43.437Z,95364.00
2023-03-02T05:44:45.235Z,95371.28
2023-03-02T05:47:51.582Z,95363.47
2023-03-02T05:50:53.826Z,95373.13
2023-03-02T05:53:55.822Z,95374.56
2023-03-02T05:56:57.696Z,95360.19
2023-03-02T06:00:00.189Z,95366.94
2023-03-02T06:03:03.892Z,95363.06
2023-03-02T06:06:08.545Z,95373.00
2023-03-02T06:09:10.388Z,95367.09
2023-03-02T06:12:15.303Z,95377.56
2023-03-02T06:15:17.502Z,95375.53
2023-03-02T06:18:23.432Z,95376.75
2023-03-02T06:21:25.267Z,95378.97
2023-03-02T06:24:27.535Z,95381.19
2023-03-02T06:27:32.529Z,95385.84
2023-03-02T06:30:34.758Z,95384.88
2023-03-02T06:33:38.452Z,95390.53
2023-03-02T06:36:40.525Z,95392.84
2023-03-02T06:39:42.376Z,95387.03
2023-03-02T06:42:47.418Z,95389.44
2023-03-02T06:45:49.576Z,95389.22
2023-03-02T06:48:52.730Z,95391.00
2023-03-02T06:51:54.545Z,95386.75
2023-03-02T06:54:56.638Z,95394.88
2023-03-02T06:57:58.422Z,95390.63
2023-03-02T07:01:00.586Z,95391.38
2023-03-02T07:04:04.101Z,95393.69
2023-03-02T07:07:06.136Z,95396.97
2023-03-02T07:10:09.847Z,95397.09
2023-03-02T07:13:11.664Z,95402.25
2023-03-02T07:16:14.875Z,95401.63
2023-03-02T07:19:18.419Z,95403.56
2023-03-02T07:22:20.551Z,95402.78
2023-03-02T07:25:22.849Z,95403.22
2023-03-02T07:28:27.428Z,95412.13
2023-03-02T07:31:29.325Z,95405.06
2023-03-02T07:34:32.939Z,95411.28
2023-03-02T07:37:34.771Z,95420.06
2023-03-02T07:40:40.996Z,95417.66
2023-03-02T07:43:43.325Z,95418.56
2023-03-02T07:46:45.464Z,95416.34
2023-03-02T07:49:49.494Z,95422.28
2023-03-02T07:52:52.196Z,95414.38
2023-03-02T07:55:54.532Z,95425.00
2023-03-02T07:58:56.366Z,95419.78
2023-03-02T08:01:58.487Z,95416.34
2023-03-02T08:05:03.113Z,95421.34
2023-03-02T08:08:05.453Z,95433.16
2023-03-02T08:11:09.528Z,95432.16
2023-03-02T08:14:11.517Z,95434.06
2023-03-02T08:17:13.280Z,95437.19
2023-03-02T08:20:19.304Z,95446.25
2023-03-02T08:23:21.978Z,95440.22
2023-03-02T08:26:23.779Z,95433.56
2023-03-02T08:29:26.595Z,95438.94
2023-03-02T08:32:28.471Z,95446.19
2023-03-02T08:35:32.009Z,95445.41
2023-03-02T08:38:36.570Z,95442.50
2023-03-02T08:41:38.679Z,95436.31
2023-03-02T08:44:43.136Z,95431.00
2023-03-02T08:47:45.107Z,95436.91
2023-03-02T08:51:01.357Z,95422.13
2023-03-02T08:54:03.388Z,95428.59
2023-03-02T08:57:05.674Z,95420.78
2023-03-02T09:00:08.896Z,95425.47
2023-03-02T09:03:11.146Z,95416.91
2023-03-02T09:06:14.620Z,95416.13
2023-03-02T09:09:16.516Z,95424.34
2023-03-02T09:12:18.269Z,95422.25
2023-03-02T09:15:20.573Z,95420.69
2023-03-02T09:18:22.348Z,95423.66
2023-03-02T09:21:30.890Z,95422.38
2023-03-02T09:24:33.692Z,95425.25
2023-03-02T09:27:35.491Z,95430.59
2023-03-02T09:30:37.628Z,95427.25
2023-03-02T09:33:39.730Z,95419.41
2023-03-02T09:36:43.189Z,95419.38
2023-03-02T09:39:45.380Z,95413.13
2023-03-02T09:43:16.678Z,95411.22
2023-03-02T09:46:26.017Z,95420.16
2023-03-02T09:49:35.832Z,95417.84
2023-03-02T09:52:46.717Z,95421.63
2023-03-02T09:55:54.332Z,95421.22
2023-03-02T09:59:01.392Z,95419.47
2023-03-02T10:02:17.395Z,95420.03
2023-03-02T10:05:24.060Z,95421.50
2023-03-02T10:08:30.693Z,95415.44
2023-03-02T10:11:43.118Z,95421.94
2023-03-02T10:14:53.591Z,95418.66
2023-03-02T10:18:05.833Z,95414.41
2023-03-02T10:21:13.893Z,95413.66
2023-03-02T10:24:29.773Z,95412.88
2023-03-02T10:27:36.845Z,95405.47
2023-03-02T10:30:40.429Z,95409.44
2023-03-02T10:33:42.601Z,95405.16
2023-03-02T10:36:45.144Z,95396.72
2023-03-02T10:39:50.904Z,95411.75
2023-03-02T10:42:54.314Z,95398.34
2023-03-02T10:46:01.467Z,95400.97
2023-03-02T10:49:03.414Z,95396.66
2023-03-02T10:52:12.495Z,95399.41
2023-03-02T10:55:16.701Z,95403.97
2023-03-02T10:58:24.051Z,95398.47
2023-03-02T11:01:26.460Z,95388.84
2023-03-02T11:04:28.833Z,95391.09
2023-03-02T11:07:31.097Z,95386.97
2023-03-02T11:10:37.781Z,95389.28
2023-03-02T11:13:39.841Z,95388.63
2023-03-02T11:16:42.049Z,95379.81
2023-03-02T11:19:43.909Z,95384.81
2023-03-02T11:22:59.556Z,95374.09
2023-03-02T11:26:11.401Z,95381.19
2023-03-02T11:29:28.154Z,95368.59
2023-03-02T11:32:37.093Z,95369.16
2023-03-02T11:35:47.075Z,95366.47
2023-03-02T11:38:53.627Z,95365.50
2023-03-02T11:41:57.639Z,95359.81
2023-03-02T11:45:08.883Z,95361.13
2023-03-02T11:48:18.699Z,95354.94
2023-03-02T11:51:23.985Z,95357.47
2023-03-02T11:54:40.745Z,95351.88
2023-03-02T11:57:47.460Z,95355.84
2023-03-02T12:00:50.716Z,95358.09
2023-03-02T12:03:53.334Z,95355.84
2023-03-02T12:06:58.082Z,95352.72
2023-03-02T12:10:04.442Z,95348.63
2023-03-02T12:13:19.944Z,95338.88
2023-03-02T12:16:23.517Z,95347.66
2023-03-02T12:19:28.160Z,95341.28
2023-03-02T12:22:31.643Z,95347.09
2023-03-02T12:25:41.080Z,95334.69
2023-03-02T12:28:59.043Z,95340.19
2023-03-02T12:32:12.581Z,95332.91
2023-03-02T12:35:20.599Z,95334.53
2023-03-02T12:38:30.880Z,95336.56
2023-03-02T12:41:49.526Z,95333.56
2023-03-02T12:45:03.319Z,95331.94
2023-03-02T12:48:23.122Z,95329.31
2023-03-02T12:51:26.587Z,95321.31
2023-03-02T12:54:30.375Z,95320.56
2023-03-02T12:57:33.328Z,95320.97
2023-03-02T13:00:37.097Z,95316.41
2023-03-02T13:03:46.283Z,95322.91
2023-03-02T13:06:47.871Z,95311.75
2023-03-02T13:09:56.668Z,95317.16
2023-03-02T13:13:00.416Z,95315.66
2023-03-02T13:16:07.266Z,95312.25
2023-03-02T13:19:13.599Z,95311.44
2023-03-02T13:22:17.621Z,95319.66
2023-03-02T13:25:23.998Z,95321.19
2023-03-02T13:28:28.817Z,95310.84
2023-03-02T13:31:35.631Z,95307.38
2023-03-02T13:34:37.777Z,95308.44
2023-03-02T13:37:41.785Z,95301.53
2023-03-02T13:40:49.513Z,95302.03
2023-03-02T13:43:51.313Z,95305.09
2023-03-02T13:46:57.876Z,95312.44
2023-03-02T13:50:07.550Z,95308.59
2023-03-02T13:53:11.767Z,95305.50
2023-03-02T13:56:17.572Z,95299.75
2023-03-02T13:59:21.366Z,95299.75
2023-03-02T14:02:27.123Z,95299.41
2023-03-02T14:05:29.660Z,95295.53
2023-03-02T14:08:31.554Z,95290.94
2023-03-02T14:11:39.146Z,95285.53
2023-03-02T14:14:40.997Z,95283.22
2023-03-02T14:17:44.898Z,95280.94
2023-03-02T14:20:46.959Z,95271.69
2023-03-02T14:23:49.936Z,95274.72
2023-03-02T14:26:51.828Z,95275.47
2023-03-02T14:29:54.142Z,95281.59
2023-03-02T14:32:57.661Z,95270.81
2023-03-02T14:36:03.308Z,95268.13
2023-03-02T14:39:12.380Z,95266.22
2023-03-02T14:42:17.620Z,95258.91
2023-03-02T14:45:22.321Z,95264.69
2023-03-02T14:48:25.638Z,95256.59
2023-03-02T14:51:32.618Z,95251.94
2023-03-02T14:54:39.448Z,95253.88
2023-03-02T14:57:42.305Z,95253.16
2023-03-02T15:00:44.854Z,95246.97
2023-03-02T15:03:50.092Z,95250.03
2023-03-02T15:06:53.675Z,95250.44
2023-03-02T15:09:56.381Z,95244.66
2023-03-02T15:13:00.251Z,95240.38
2023-03-02T15:16:02.049Z,95232.72
2023-03-02T15:19:10.755Z,95233.09
2023-03-02T15:22:15.396Z,95235.41
2023-03-02T15:25:18.370Z,95234.63
2023-03-02T15:28:21.405Z,95237.72
2023-03-02T15:31:24.047Z,95233.84
2023-03-02T15:34:29.375Z,95239.25
2023-03-02T15:37:32.272Z,95237.31
2023-03-02T15:40:34.047Z,95230.00
2023-03-02T15:43:40.544Z,95230.75
2023-03-02T15:46:42.376Z,95234.59
2023-03-02T15:49:45.828Z,95236.16
2023-03-02T15:52:50.513Z,95235.34
2023-03-02T15:55:52.452Z,95231.16
2023-03-02T15:58:54.728Z,95237.63
2023-03-02T16:01:57.591Z,95240.75
2023-03-02T16:05:00.850Z,95241.94
2023-03-02T16:08:04.523Z,95235.34
2023-03-02T16:11:08.134Z,95244.19
2023-03-02T16:14:10.734Z,95246.13
2023-03-02T16:17:12.560Z,95239.50
2023-03-02T16:20:18.131Z,95247.16
2023-03-02T16:23:20.567Z,95239.28
2023-03-02T16:26:26.067Z,95254.25
2023-03-02T16:29:28.392Z,95242.97
2023-03-02T16:32:30.321Z,95250.53
2023-03-02T16:35:35.016Z,95254.78
2023-03-02T16:38:39.144Z,95259.28
2023-03-02T16:41:46.006Z,95255.19
2023-03-02T16:44:50.207Z,95269.72
2023-03-02T16:47:52.141Z,95254.28
2023-03-02T16:51:01.832Z,95260.03
2023-03-02T16:54:04.417Z,95262.06
2023-03-02T16:57:06.464Z,95267.34
2023-03-02T17:00:11.503Z,95266.16
2023-03-02T17:03:17.699Z,95276.19
2023-03-02T17:06:27.845Z,95269.28
2023-03-02T17:09:30.254Z,95272.63
2023-03-02T17:12:36.514Z,95271.13
2023-03-02T17:15:40.042Z,95272.00
2023-03-02T17:18:42.351Z,95278.41
2023-03-02T17:21:46.014Z,95278.34
2023-03-02T17:24:48.875Z,95280.66
2023-03-02T17:27:50.639Z,95293.63
2023-03-02T17:30:57.891Z,95286.09
2023-03-02T17:34:00.502Z,95287.66
2023-03-02T17:37:04.251Z,95289.16
2023-03-02T17:40:09.327Z,95288.34
2023-03-02T17:43:18.913Z,95289.72
2023-03-02T17:46:24.034Z,95292.56
2023-03-02T17:49:27.361Z,95301.31
2023-03-02T17:52:33.412Z,95303.19
2023-03-02T17:55:36.379Z,95304.88
2023-03-02T17:58:44.936Z,95305.69
2023-03-02T18:01:48.322Z,95306.72
2023-03-02T18:04:51.518Z,95304.47
2023-03-02T18:07:59.717Z,95304.59
2023-03-02T18:11:04.767Z,95311.16
2023-03-02T18:14:13.184Z,95305.66
2023-03-02T18:17:20.373Z,95303.22
2023-03-02T18:20:23.887Z,95312.03
2023-03-02T18:23:28.029Z,95300.09
2023-03-02T18:26:33.179Z,95306.28
2023-03-02T18:29:38.988Z,95303.97
2023-03-02T18:32:42.192Z,95309.94
2023-03-02T18:35:46.721Z,95310.72
2023-03-02T18:38:51.479Z,95317.28
2023-03-02T18:41:55.981Z,95316.84
2023-03-02T18:45:01.130Z,95312.44
2023-03-02T18:48:04.645Z,95316.25
2023-03-02T18:51:07.870Z,95319.09
2023-03-02T18:54:18.788Z,95323.06
2023-03-02T18:57:21.880Z,95318.81
2023-03-02T19:00:27.914Z,95319.78
2023-03-02T19:03:35.345Z,95319.72
2023-03-02T19:06:38.696Z,95324.91
2023-03-02T19:09:42.818Z,95315.72
2023-03-02T19:12:46.414Z,95322.28
2023-03-02T19:15:49.411Z,95318.63
2023-03-02T19:18:51.978Z,95324.28
2023-03-02T19:21:54.648Z,95327.09
2023-03-02T19:24:59.713Z,95333.72
2023-03-02T19:28:09.525Z,95335.63
2023-03-02T19:31:12.984Z,95339.00
2023-03-02T19:34:16.785Z,95337.13
2023-03-02T19:37:29.519Z,95352.91
2023-03-02T19:40:34.714Z,95346.84
2023-03-02T19:43:38.525Z,95352.63
2023-03-02T19:46:43.151Z,95355.31
2023-03-02T19:49:46.127Z,95344.91
2023-03-02T19:52:48.833Z,95350.22
2023-03-02T19:55:59.622Z,95344.53
2023-03-02T19:59:02.781Z,95339.50
2023-03-02T20:02:09.212Z,95350.56
2023-03-02T20:05:12.791Z,95352.59
2023-03-02T20:08:15.686Z,95353.44
2023-03-02T20:11:19.912Z,95346.13
2023-03-02T20:14:33.569Z,95349.94
2023-03-02T20:17:36.673Z,95350.34
2023-03-02T20:20:41.074Z,95350.06
2023-03-02T20:23:47.066Z,95351.47
2023-03-02T20:26:55.449Z,95353.72
2023-03-02T20:29:58.346Z,95345.25
2023-03-02T20:33:03.704Z,95350.41
2023-03-02T20:36:07.988Z,95344.69
2023-03-02T20:39:15.506Z,95359.81
2023-03-02T20:42:20.464Z,95351.16
2023-03-02T20:45:23.956Z,95356.19
2023-03-02T20:48:27.810Z,95366.78
2023-03-02T20:51:30.810Z,95363.88
2023-03-02T20:54:40.282Z,95363.16
2023-03-02T20:57:52.303Z,95364.81
2023-03-02T21:00:56.436Z,95382.03
2023-03-02T21:03:59.285Z,95378.16
2023-03-02T21:07:02.419Z,95374.09
2023-03-02T21:10:07.708Z,95389.03
2023-03-02T21:13:14.740Z,95392.84
2023-03-02T21:16:19.293Z,95390.69
2023-03-02T21:19:22.013Z,95394.31
2023-03-02T21:22:24.965Z,95388.34
2023-03-02T21:25:27.846Z,95383.00
2023-03-02T21:28:38.606Z,95379.44
2023-03-02T21:31:41.701Z,95384.81
2023-03-02T21:34:44.482Z,95378.25
2023-03-02T21:37:48.021Z,95376.44
2023-03-02T21:40:50.893Z,95374.28
2023-03-02T21:43:54.689Z,95371.63
2023-03-02T21:46:59.336Z,95378.00
2023-03-02T21:50:01.961Z,95378.34
2023-03-02T21:53:09.899Z,95376.44
2023-03-02T21:56:17.689Z,95374.09
2023-03-02T21:59:20.823Z,95371.25
2023-03-02T22:02:25.966Z,95369.69
2023-03-02T22:05:28.049Z,95368.66
2023-03-02T22:08:30.293Z,95375.41
2023-03-02T22:11:35.336Z,95383.69
2023-03-02T22:14:39.835Z,95378.75
2023-03-02T22:17:44.972Z,95384.97
2023-03-02T22:20:48.923Z,95383.25
2023-03-02T22:23:53.422Z,95379.38
2023-03-02T22:27:02.124Z,95383.59
2023-03-02T22:30:18.606Z,95389.34
2023-03-02T22:33:22.953Z,95379.59
2023-03-02T22:36:26.572Z,95383.22
2023-03-02T22:39:31.591Z,95380.00
2023-03-02T22:42:37.467Z,95383.03
2023-03-02T22:45:41.663Z,95381.78
2023-03-02T22:48:44.844Z,95381.28
2023-03-02T22:51:46.614Z,95381.91
2023-03-02T22:54:51.542Z,95379.59
2023-03-02T22:57:55.919Z,95382.75
2023-03-02T23:01:00.511Z,95385.75
2023-03-02T23:04:15.201Z,95386.44
2023-03-02T23:07:19.622Z,95400.13
2023-03-02T23:10:22.371Z,95400.66
2023-03-02T23:13:31.077Z,95409.75
2023-03-02T23:16:35.780Z,95408.22
2023-03-02T23:19:39.190Z,95404.75
2023-03-02T23:22:43.450Z,95403.06
2023-03-02T23:25:46.293Z,95411.97
2023-03-02T23:28:49.435Z,95404.97
2023-03-02T23:31:53.015Z,95400.19
2023-03-02T23:34:54.874Z,95407.06
2023-03-02T23:37:59.713Z,95412.06
2023-03-02T23:41:01.498Z,95412.97
2023-03-02T23:44:06.395Z,95410.41
2023-03-02T23:47:10.071Z,95409.25
2023-03-02T23:50:12.504Z,95413.59
2023-03-02T23:53:14.355Z,95408.72
2023-03-02T23:56:16.704Z,95417.03
2023-03-02T23:59:18.448Z,95416.25
